Time;durP1;ratioP1;P1;durP2;ratioP2;P2;SDS_P1;SDS_P2;PMS_P1;PMS_P2;Temp;Humidity;BMP_temperature;BMP_pressure;BME280_temperature;BME280_humidity;BME280_pressure;Samples;Min_cycle;Max_cycle;Signal;HPM_P1;HPM_P2
2022/03/23 00:00:07;;;;;;;51.95;11.93;;;;;;;;;;5034159;28;20180;-73
2022/03/23 00:02:34;;;;;;;18.33;7.53;;;;;;;;;;5026995;28;20206;-73
2022/03/23 00:05:00;;;;;;;14.90;7.03;;;;;;;;;;5033939;28;20234;-73
2022/03/23 00:07:26;;;;;;;20.55;8.48;;;;;;;;;;5034228;28;20184;-73
2022/03/23 00:09:53;;;;;;;26.80;8.80;;;;;;;;;;5033928;28;20208;-73
2022/03/23 00:12:19;;;;;;;18.55;7.68;;;;;;;;;;5033810;28;20426;-73
2022/03/23 00:14:45;;;;;;;16.02;7.85;;;;;;;;;;5034671;28;20188;-74
2022/03/23 00:17:27;;;;;;;26.35;9.13;;;;;;;;;;5016665;28;20627;-75
2022/03/23 00:19:54;;;;;;;27.58;8.40;;;;;;;;;;5032294;28;20269;-74
2022/03/23 00:22:26;;;;;;;24.30;8.40;;;;;;;;;;5017830;28;20189;-74
2022/03/23 00:24:55;;;;;;;18.40;8.05;;;;;;;;;;5034017;28;20188;-75
2022/03/23 00:27:21;;;;;;;22.23;8.82;;;;;;;;;;5033273;28;20195;-74
2022/03/23 00:29:48;;;;;;;34.15;10.45;;;;;;;;;;5034375;28;20821;-75
2022/03/23 00:32:15;;;;;;;27.08;8.88;;;3.40;1.00;;;;;;5033705;28;20204;-75
2022/03/23 00:34:51;;;;;;;18.83;8.23;;;;;;;;;;5033923;28;20192;-75
2022/03/23 00:37:23;;;;;;;22.58;8.75;;;;;;;;;;5033686;28;20691;-74
2022/03/23 00:39:50;;;;;;;17.35;8.15;;;;;;;;;;5033936;28;20173;-75
2022/03/23 00:42:16;;;;;;;23.27;8.18;;;;;;;;;;5015559;28;20656;-74
2022/03/23 00:44:43;;;;;;;18.17;7.30;;;;;;;;;;5034201;28;20177;-73
2022/03/23 00:47:09;;;;;;;41.05;9.05;;;;;;;;;;5033068;28;20173;-73
2022/03/23 00:49:36;;;;;;;22.73;8.63;;;3.30;1.00;;;;;;5033364;28;20180;-73
2022/03/23 00:52:05;;;;;;;29.45;8.80;;;;;;;;;;5033625;28;20180;-73
2022/03/23 00:54:34;;;;;;;23.92;9.15;;;3.20;1.00;;;;;;5033009;28;20527;-73
2022/03/23 00:57:01;;;;;;;19.88;7.25;;;3.20;1.00;;;;;;5033766;28;20259;-73
2022/03/23 00:59:27;;;;;;;17.85;7.13;;;;;;;;;;5033672;28;20172;-73
2022/03/23 01:01:58;;;;;;;13.05;6.57;;;;;;;;;;5030636;28;20187;-73
2022/03/23 01:04:25;;;;;;;19.77;7.25;;;;;;;;;;5032927;28;20191;-73
2022/03/23 01:06:54;;;;;;;22.52;7.55;;;;;;;;;;5033330;28;20176;-73
2022/03/23 01:09:25;;;;;;;13.45;6.80;;;2.90;1.00;;;;;;5033279;28;20176;-73
2022/03/23 01:11:52;;;;;;;23.10;7.00;;;2.90;1.00;;;;;;5033118;28;20176;-73
2022/03/23 01:14:19;;;;;;;17.73;8.00;;;2.90;1.00;;;;;;5033260;28;20180;-73
2022/03/23 01:16:45;;;;;;;17.17;7.25;;;;;;;;;;5033375;28;20203;-73
2022/03/23 01:19:12;;;;;;;17.15;7.53;;;;;;;;;;5033033;28;20215;-73
2022/03/23 01:21:39;;;;;;;18.50;7.28;;;;;;;;;;5033307;28;20263;-73
2022/03/23 01:24:06;;;;;;;13.13;7.10;;;;;;;;;;5020276;28;20291;-73
2022/03/23 01:26:32;;;;;;;18.13;7.03;;;;;;;;;;5011787;28;20177;-73
2022/03/23 01:28:58;;;;;;;15.00;7.05;;;;;;;;;;5012106;28;20172;-73
2022/03/23 01:31:25;;;;;;;17.38;8.10;;;;;;;;;;5013516;28;20173;-73
2022/03/23 01:33:51;;;;;;;23.52;8.70;;;;;;;;;;5012846;28;20185;-73
2022/03/23 01:36:17;;;;;;;17.05;8.10;;;;;;;;;;5013477;28;20180;-73
2022/03/23 01:38:43;;;;;;;21.73;7.50;;;;;;;;;;5013191;28;20525;-73
2022/03/23 01:41:09;;;;;;;16.80;8.00;;;;;;;;;;5013356;28;20515;-73
2022/03/23 01:43:35;;;;;;;24.92;8.85;;;;;;;;;;5012935;28;20193;-73
2022/03/23 01:46:01;;;;;;;16.35;7.70;;;;;;;;;;5013404;28;20646;-73
2022/03/23 01:48:27;;;;;;;19.35;8.23;;;;;;;;;;5001038;28;20721;-73
2022/03/23 01:50:55;;;;;;;22.55;7.68;;;;;;;;;;5013395;28;20650;-73
2022/03/23 01:53:21;;;;;;;28.35;9.23;;;;;;;;;;5013055;28;20204;-73
2022/03/23 01:55:48;;;;;;;22.25;8.35;;;;;;;;;;5012966;28;20265;-73
2022/03/23 01:58:14;;;;;;;17.05;7.80;;;;;;;;;;5012996;28;20181;-73
2022/03/23 02:00:40;;;;;;;17.63;8.15;;;;;;;;;;5013179;28;20610;-73
2022/03/23 02:03:06;;;;;;;18.67;8.13;;;;;;;;;;5012728;28;20223;-73
2022/03/23 02:05:33;;;;;;;16.20;7.57;;;;;;;;;;5012768;28;20177;-73
2022/03/23 02:08:00;;;;;;;18.95;8.68;;;;;;;;;;5013067;28;20252;-73
2022/03/23 02:10:28;;;;;;;20.02;8.48;;;;;;;;;;5013033;28;20201;-73
2022/03/23 02:12:55;;;;;;;18.48;8.65;;;;;;;;;;5012950;28;20193;-73
2022/03/23 02:15:23;;;;;;;16.85;8.48;;;;;;;;;;5013455;28;20185;-75
2022/03/23 02:17:53;;;;;;;19.80;8.70;;;;;;;;;;5013036;28;20626;-75
2022/03/23 02:20:22;;;;;;;22.73;9.48;;;;;;;;;;5012569;28;20177;-74
2022/03/23 02:22:48;;;;;;;25.65;8.68;;;;;;;;;;5011433;28;20650;-74
2022/03/23 02:25:23;;;;;;;22.52;8.80;;;2.50;1.00;;;;;;5013029;28;20606;-74
2022/03/23 02:27:50;;;;;;;19.48;8.43;;;2.50;1.00;;;;;;5013102;28;20203;-74
2022/03/23 02:30:16;;;;;;;24.75;9.55;;;;;;;;;;5015932;28;20197;-73
2022/03/23 02:32:43;;;;;;;22.13;8.95;;;;;;;;;;5016819;28;20185;-74
2022/03/23 02:35:11;;;;;;;24.85;9.25;;;;;;;;;;5015944;28;20634;-73
2022/03/23 02:37:37;;;;;;;15.25;8.15;;;;;;;;;;5016278;28;20664;-73
2022/03/23 02:40:03;;;;;;;15.77;8.10;;;;;;;;;;5016166;28;20177;-73
2022/03/23 02:42:30;;;;;;;18.77;8.25;;;;;;;;;;5016034;28;20537;-74
2022/03/23 02:44:57;;;;;;;20.83;9.23;;;;;;;;;;5013951;28;20217;-74
2022/03/23 02:47:34;;;;;;;29.35;10.02;;;;;;;;;;5006405;28;20533;-74
2022/03/23 02:50:01;;;;;;;19.42;8.45;;;;;;;;;;5016320;28;20177;-74
2022/03/23 02:52:28;;;;;;;19.48;8.75;;;;;;;;;;5016404;28;20260;-74
2022/03/23 03:03:33;;;;;;;13.10;7.90;;;;;;;;;;5016164;28;20695;-74
2022/03/23 03:06:03;;;;;;;20.40;9.70;;;2.10;1.00;;;;;;5014315;28;20185;-74
2022/03/23 03:08:48;;;;;;;17.92;8.85;;;;;;;;;;5008860;28;20181;-74
2022/03/23 03:11:15;;;;;;;20.33;9.10;;;;;;;;;;5015499;28;20196;-74
2022/03/23 03:13:41;;;;;;;24.70;9.57;;;2.10;1.00;;;;;;5015984;28;20181;-74
2022/03/23 03:16:10;;;;;;;18.70;8.38;;;;;;;;;;5015533;28;20188;-75
2022/03/23 03:18:36;;;;;;;20.42;8.88;;;;;;;;;;5006567;28;20240;-74
2022/03/23 03:21:06;;;;;;;18.73;8.93;;;2.00;1.00;;;;;;4998720;28;20181;-74
2022/03/23 03:23:33;;;;;;;22.73;9.85;;;;;;;;;;5012996;28;20305;-74
2022/03/23 03:26:01;;;;;;;20.00;9.15;;;2.00;1.00;;;;;;5019004;28;20214;-74
2022/03/23 03:28:28;;;;;;;19.40;9.25;;;2.00;1.00;;;;;;5035461;28;20270;-74
2022/03/23 03:30:58;;;;;;;21.05;8.68;;;;;;;;;;5035349;28;20191;-74
2022/03/23 03:33:24;;;;;;;19.45;8.25;;;;;;;;;;5035726;28;20188;-74
2022/03/23 03:35:50;;;;;;;19.67;9.02;;;;;;;;;;5035342;28;20572;-74
2022/03/23 03:38:16;;;;;;;17.55;8.15;;;;;;;;;;5035172;28;20173;-75
2022/03/23 03:40:46;;;;;;;15.73;8.73;;;;;;;;;;5034063;28;20649;-74
2022/03/23 03:43:12;;;;;;;16.58;8.55;;;;;;;;;;5034696;28;20196;-74
2022/03/23 03:45:38;;;;;;;26.92;9.25;;;;;;;;;;5035300;28;20226;-74
2022/03/23 03:48:05;;;;;;;18.10;8.65;;;;;;;;;;5034798;28;20180;-74
2022/03/23 03:50:31;;;;;;;23.45;9.10;;;;;;;;;;5034786;28;20231;-74
2022/03/23 03:53:10;;;;;;;18.90;9.07;;;;;;;;;;5035135;28;20637;-74
2022/03/23 03:55:36;;;;;;;35.05;10.80;;;;;;;;;;5034551;28;20218;-74
2022/03/23 03:58:03;;;;;;;18.60;8.93;;;1.50;1.00;;;;;;5034677;28;20187;-74
2022/03/23 04:00:30;;;;;;;17.65;9.15;;;;;;;;;;5035215;28;20176;-74
2022/03/23 04:02:58;;;;;;;18.77;8.77;;;;;;;;;;5034590;28;20698;-74
2022/03/23 04:05:29;;;;;;;22.33;8.98;;;;;;;;;;5034579;28;20177;-74
2022/03/23 04:08:04;;;;;;;24.20;9.35;;;;;;;;;;5034760;28;20172;-74
2022/03/23 04:10:30;;;;;;;20.90;9.95;;;;;;;;;;5035925;28;20701;-74
2022/03/23 04:12:58;;;;;;;21.83;9.38;;;;;;;;;;5034533;28;20638;-74
2022/03/23 04:15:25;;;;;;;28.23;10.35;;;;;;;;;;5034234;28;20180;-74
2022/03/23 04:17:58;;;;;;;21.23;9.63;;;;;;;;;;5033651;28;20629;-74
2022/03/23 04:20:34;;;;;;;23.02;10.73;;;;;;;;;;5034297;28;20259;-74
2022/03/23 04:23:00;;;;;;;24.02;9.30;;;;;;;;;;5034172;28;20195;-74
2022/03/23 04:25:40;;;;;;;21.35;9.80;;;;;;;;;;5030640;28;20646;-74
2022/03/23 04:28:15;;;;;;;18.85;9.13;;;;;;;;;;5034083;28;20625;-74
2022/03/23 04:30:46;;;;;;;18.98;9.10;;;;;;;;;;5034536;28;20233;-74
2022/03/23 04:33:22;;;;;;;26.40;10.35;;;;;;;;;;5033762;28;20183;-74
2022/03/23 04:35:58;;;;;;;22.35;9.77;;;;;;;;;;5034249;28;20183;-74
2022/03/23 04:38:34;;;;;;;26.00;10.27;;;;;;;;;;5033893;28;20179;-74
2022/03/23 04:41:00;;;;;;;23.95;10.90;;;;;;;;;;5033896;28;20186;-74
2022/03/23 04:43:38;;;;;;;23.42;9.80;;;;;;;;;;5033637;28;20195;-74
2022/03/23 04:46:05;;;;;;;24.35;9.35;;;;;;;;;;5034348;28;20168;-74
2022/03/23 04:48:31;;;;;;;20.83;9.50;;;;;;;;;;5033681;28;20833;-74
2022/03/23 04:51:09;;;;;;;17.30;9.52;;;;;;;;;;5034084;28;20246;-74
2022/03/23 04:53:52;;;;;;;19.58;9.75;;;;;;;;;;5033462;28;20605;-74
2022/03/23 04:56:22;;;;;;;21.55;9.65;;;;;;;;;;5033770;28;20500;-74
2022/03/23 04:58:59;;;;;;;17.33;9.35;;;;;;;;;;5033985;28;20172;-74
2022/03/23 05:01:25;;;;;;;28.83;11.05;;;;;;;;;;5033685;28;20176;-73
2022/03/23 05:03:52;;;;;;;23.47;10.23;;;;;;;;;;5033407;28;20557;-74
2022/03/23 05:06:19;;;;;;;21.00;9.40;;;;;;;;;;5033134;28;21005;-73
2022/03/23 05:08:45;;;;;;;17.42;8.68;;;;;;;;;;5024791;28;20302;-73
2022/03/23 05:11:11;;;;;;;20.98;9.10;;;;;;;;;;5033466;28;20180;-73
2022/03/23 05:13:37;;;;;;;18.38;9.48;;;;;;;;;;5033120;28;20196;-73
2022/03/23 05:16:18;;;;;;;18.08;9.18;;;;;;;;;;5033618;28;20262;-74
2022/03/23 05:18:45;;;;;;;22.08;9.75;;;;;;;;;;5033515;28;20179;-74
2022/03/23 05:21:16;;;;;;;26.77;10.57;;;;;;;;;;5015625;28;20548;-74
2022/03/23 05:23:42;;;;;;;21.70;9.85;;;;;;;;;;5033359;28;20216;-74
2022/03/23 05:26:27;;;;;;;20.75;9.95;;;0.90;1.00;;;;;;5033210;28;20168;-74
2022/03/23 05:28:58;;;;;;;18.13;9.30;;;;;;;;;;5033539;28;20172;-74
2022/03/23 05:31:24;;;;;;;17.67;9.35;;;;;;;;;;5033657;28;20248;-74
2022/03/23 05:33:50;;;;;;;22.05;10.18;;;;;;;;;;5033009;28;20533;-73
2022/03/23 05:36:16;;;;;;;30.52;10.52;;;;;;;;;;5033229;28;20183;-74
2022/03/23 05:38:42;;;;;;;21.33;9.95;;;;;;;;;;5033191;28;20187;-74
2022/03/23 05:41:09;;;;;;;29.52;10.57;;;;;;;;;;5033112;28;20195;-74
2022/03/23 05:43:35;;;;;;;20.00;8.95;;;;;;;;;;5032467;28;20199;-73
2022/03/23 05:46:10;;;;;;;21.15;9.95;;;;;;;;;;5033214;28;20255;-78
2022/03/23 05:48:36;;;;;;;24.80;10.55;;;;;;;;;;5031513;28;20174;-74
2022/03/23 05:51:02;;;;;;;19.58;9.60;;;;;;;;;;5033143;28;20255;-75
2022/03/23 05:53:36;;;;;;;20.88;9.85;;;;;;;;;;5032952;28;20199;-74
2022/03/23 05:56:04;;;;;;;22.63;10.10;;;;;;;;;;5033410;28;20266;-75
2022/03/23 05:58:30;;;;;;;25.52;10.43;;;;;;;;;;5033378;28;20687;-75
2022/03/23 06:01:00;;;;;;;24.83;10.05;;;;;;;;;;5034684;28;20176;-74
2022/03/23 06:03:28;;;;;;;19.77;9.35;;;;;;;;;;5033192;28;20193;-75
2022/03/23 06:05:54;;;;;;;22.30;9.20;;;;;;;;;;5037092;28;20255;-75
2022/03/23 06:08:20;;;;;;;17.55;8.85;;;1.30;1.00;;;;;;5036905;28;20593;-74
2022/03/23 06:10:52;;;;;;;27.88;10.88;;;;;;;;;;5036589;28;20617;-74
2022/03/23 06:13:18;;;;;;;15.93;8.82;;;;;;;;;;5046139;28;20180;-74
2022/03/23 06:15:45;;;;;;;26.55;9.88;;;;;;;;;;5036963;28;20176;-74
2022/03/23 06:18:11;;;;;;;22.63;9.10;;;;;;;;;;5036993;28;20309;-74
2022/03/23 06:20:38;;;;;;;22.85;9.98;;;1.50;1.00;;;;;;5036717;28;20211;-74
2022/03/23 06:23:05;;;;;;;22.10;9.48;;;;;;;;;;5036406;28;20657;-74
2022/03/23 06:25:31;;;;;;;30.20;9.95;;;;;;;;;;5036512;28;20176;-74
2022/03/23 06:27:57;;;;;;;21.55;9.35;;;;;;;;;;5043834;28;20172;-75
2022/03/23 06:30:31;;;;;;;19.67;9.20;;;1.80;1.00;;;;;;5041100;28;20521;-75
2022/03/23 06:32:58;;;;;;;19.17;9.52;;;;;;;;;;5026675;28;20509;-75
2022/03/23 06:35:27;;;;;;;16.73;8.52;;;2.00;1.00;;;;;;5036488;28;20189;-75
2022/03/23 06:37:53;;;;;;;20.60;9.13;;;;;;;;;;5036446;28;20176;-75
2022/03/23 06:40:22;;;;;;;19.80;9.55;;;;;;;;;;5036155;28;20255;-75
2022/03/23 06:42:52;;;;;;;23.17;9.88;;;;;;;;;;5035459;28;20223;-75
2022/03/23 06:45:22;;;;;;;31.00;10.32;;;;;;;;;;5042526;28;20172;-75
2022/03/23 06:47:58;;;;;;;25.48;9.38;;;;;;;;;;5042177;28;20179;-75
2022/03/23 06:50:28;;;;;;;14.98;7.47;;;;;;;;;;5035891;28;20291;-75
2022/03/23 06:52:54;;;;;;;107.30;15.45;;;2.80;1.00;;;;;;5027730;28;20192;-74
2022/03/23 06:55:20;;;;;;;19.92;9.35;;;;;;;;;;5033163;28;20196;-74
2022/03/23 06:57:47;;;;;;;31.10;8.75;;;;;;;;;;5035515;28;20262;-74
2022/03/23 07:00:13;;;;;;;17.25;8.88;;;;;;;;;;5028990;28;20618;-74
2022/03/23 07:02:40;;;;;;;23.40;8.88;;;;;;;;;;5030036;28;20196;-74
2022/03/23 07:05:07;;;;;;;21.00;8.60;;;;;;;;;;5035088;28;20176;-75
2022/03/23 07:07:33;;;;;;;25.67;7.35;;;;;;;;;;5035580;28;20176;-74
2022/03/23 07:13:22;;;;;;;24.58;10.00;;;;;;;;;;5031009;28;20234;-75
2022/03/23 07:15:48;;;;;;;28.03;9.57;;;;;;;;;;5035396;28;20194;-75
2022/03/23 07:18:14;;;;;;;21.63;9.07;;;;;;;;;;5035537;28;20406;-74
2022/03/23 07:20:46;;;;;;;31.13;8.33;;;;;;;;;;5035123;28;20446;-74
2022/03/23 07:23:12;;;;;;;37.53;8.13;;;;;;;;;;5034258;28;20880;-74
2022/03/23 07:25:38;;;;;;;19.90;7.10;;;;;;;;;;5002301;28;20466;-75
2022/03/23 07:28:04;;;;;;;18.27;7.57;;;;;;;;;;5015251;28;20892;-73
2022/03/23 07:30:46;;;;;;;21.13;7.40;;;;;;;;;;5008837;28;20420;-74
2022/03/23 07:33:12;;;;;;;27.87;7.60;;;;;;;;;;5008614;28;20427;-74
2022/03/23 07:35:40;;;;;;;20.20;8.30;;;;;;;;;;5009951;28;20432;-75
2022/03/23 07:38:10;;;;;;;29.30;8.00;;;;;;;;;;5010184;28;20463;-75
2022/03/23 07:40:36;;;;;;;21.37;7.90;;;;;;;;;;5014835;28;20415;-74
2022/03/23 07:43:03;;;;;;;20.33;7.80;;;;;;;;;;5014643;28;20455;-74
2022/03/23 07:45:29;;;;;;;20.93;8.57;;;;;;;;;;5014692;28;20423;-74
2022/03/23 07:47:55;;;;;;;24.67;8.40;;;;;;;;;;5014610;28;20499;-74
2022/03/23 07:50:21;;;;;;;24.50;8.93;;;;;;;;;;5014924;28;20439;-74
2022/03/23 07:52:48;;;;;;;38.07;8.70;;;;;;;;;;5014389;28;20531;-74
2022/03/23 07:55:14;;;;;;;25.00;9.40;;;;;;;;;;5012128;28;20455;-74
2022/03/23 07:57:41;;;;;;;24.03;9.77;;;;;;;;;;5023734;28;20431;-74
2022/03/23 08:00:07;;;;;;;23.07;7.40;;;;;;;;;;5014081;28;20477;-75
2022/03/23 08:02:33;;;;;;;24.70;9.73;;;;;;;;;;5014131;28;20457;-75
2022/03/23 08:04:59;;;;;;;28.80;9.63;;;;;;;;;;5020790;28;20431;-75
2022/03/23 08:07:25;;;;;;;25.37;9.60;;;;;;;;;;5014050;28;20408;-75
2022/03/23 08:09:51;;;;;;;30.33;10.60;;;;;;;;;;5013361;28;20535;-75
2022/03/23 08:12:17;;;;;;;29.00;10.30;;;;;;;;;;5013011;28;20424;-74
2022/03/23 08:14:44;;;;;;;24.17;9.47;;;;;;;;;;5013625;28;20427;-74
2022/03/23 08:17:11;;;;;;;30.17;10.97;;;;;;;;;;5013577;28;20470;-74
2022/03/23 08:19:37;;;;;;;23.07;9.57;;;;;;;;;;5013773;28;20452;-75
2022/03/23 08:22:03;;;;;;;32.80;10.03;;;;;;;;;;5013000;28;20412;-76
2022/03/23 08:24:34;;;;;;;27.27;10.83;;;;;;;;;;5025976;28;20431;-77
2022/03/23 08:27:00;;;;;;;25.17;11.13;;;;;;;;;;5032950;28;20422;-76
2022/03/23 08:29:26;;;;;;;38.37;11.10;;;;;;;;;;5032834;28;20781;-76
2022/03/23 08:31:52;;;;;;;30.37;11.50;;;;;;;;;;5032796;28;20472;-77
2022/03/23 08:34:18;;;;;;;25.57;10.83;;;;;;;;;;5032947;28;20419;-76
2022/03/23 08:36:44;;;;;;;33.73;11.70;;;;;;;;;;5036968;28;20419;-77
2022/03/23 08:39:11;;;;;;;30.37;11.63;;;;;;;;;;5038086;28;20427;-76
2022/03/23 08:41:37;;;;;;;64.83;15.00;;;;;;;;;;5034342;28;20910;-77
2022/03/23 08:44:04;;;;;;;36.50;12.57;;;;;;;;;;5037725;28;20994;-77
2022/03/23 08:46:30;;;;;;;32.90;11.43;;;;;;;;;;5038764;28;20453;-77
2022/03/23 08:48:56;;;;;;;27.13;11.40;;;;;;;;;;5043367;28;20512;-75
2022/03/23 08:51:22;;;;;;;35.63;12.73;;;;;;;;;;5033001;28;20806;-77
2022/03/23 08:53:48;;;;;;;30.87;11.93;;;;;;;;;;5047779;28;20419;-77
2022/03/23 08:56:14;;;;;;;23.53;10.63;;;;;;;;;;5033627;28;20442;-77
2022/03/23 08:58:47;;;;;;;29.70;11.63;;;;;;;;;;5021668;28;20426;-77
2022/03/23 09:01:13;;;;;;;26.27;11.30;;;;;;;;;;5032591;28;20397;-77
2022/03/23 09:03:39;;;;;;;47.77;14.00;;;;;;;;;;5031795;28;20500;-78
2022/03/23 09:06:05;;;;;;;45.10;13.80;;;;;;;;;;5026366;28;20467;-73
2022/03/23 09:08:32;;;;;;;33.93;13.03;;;;;;;;;;5029270;28;20432;-71
2022/03/23 09:10:59;;;;;;;51.30;14.60;;;;;;;;;;5028871;28;20429;-71
2022/03/23 09:13:25;;;;;;;46.20;13.87;;;;;;;;;;5028337;28;20434;-71
2022/03/23 09:15:51;;;;;;;43.27;13.23;;;;;;;;;;5019915;28;20527;-74
2022/03/23 09:18:17;;;;;;;93.53;18.30;;;;;;;;;;5025044;28;20405;-74
2022/03/23 09:20:43;;;;;;;57.87;14.40;;;;;;;;;;5025955;28;20746;-74
2022/03/23 09:23:09;;;;;;;44.63;13.83;;;;;;;;;;5030662;28;20498;-74
2022/03/23 09:25:40;;;;;;;46.87;14.70;;;;;;;;;;5031469;28;20398;-74
2022/03/23 09:28:11;;;;;;;28.17;11.97;;;;;;;;;;5026509;28;20755;-73
2022/03/23 09:30:37;;;;;;;67.77;15.33;;;;;;;;;;5029532;28;20916;-74
2022/03/23 09:33:04;;;;;;;25.60;11.10;;;;;;;;;;5029795;28;20920;-73
2022/03/23 09:35:30;;;;;;;46.77;13.57;;;;;;;;;;5032139;28;21111;-76
2022/03/23 09:38:04;;;;;;;36.90;12.17;;;;;;;;;;5020448;28;21506;-76
2022/03/23 09:40:32;;;;;;;37.23;12.90;;;12.50;99.90;;;;;;5031489;28;20427;-76
2022/03/23 09:43:08;;;;;;;36.23;13.83;;;12.60;99.90;;;;;;5036710;28;20520;-76
2022/03/23 09:48:05;;;;;;;34.90;13.10;;;12.90;99.90;;;;;;5033969;28;21057;-76
2022/03/23 09:50:34;;;;;;;44.73;13.30;;;;;;;;;;5037130;28;20477;-76
2022/03/23 09:53:04;;;;;;;29.37;11.70;;;13.00;99.90;;;;;;5036912;28;20398;-76
2022/03/23 09:55:34;;;;;;;29.40;12.37;;;;;;;;;;5036382;28;20405;-76
2022/03/23 09:58:02;;;;;;;28.40;11.93;;;13.30;99.90;;;;;;5034356;28;20401;-76
2022/03/23 10:00:33;;;;;;;29.80;12.37;;;;;;;;;;5036141;28;20477;-76
2022/03/23 10:02:59;;;;;;;40.07;13.73;;;;;;;;;;5034041;28;20459;-77
2022/03/23 10:05:28;;;;;;;25.30;11.70;;;;;;;;;;5035813;28;20406;-76
2022/03/23 10:08:19;;;;;;;26.50;12.53;;;13.80;99.90;;;;;;5028671;28;20424;-76
2022/03/23 10:11:13;;;;;;;27.27;11.33;;;;;;;;;;5034773;28;20480;-77
2022/03/23 10:13:58;;;;;;;30.03;12.53;;;;;;;;;;5034587;28;20910;-76
2022/03/23 10:17:01;;;;;;;41.53;13.40;;;14.20;99.90;;;;;;5030227;28;20766;-77
2022/03/23 10:19:27;;;;;;;23.40;11.63;;;;;;;;;;5031569;28;20870;-77
2022/03/23 10:21:54;;;;;;;29.50;12.07;;;;;;;;;;5035650;28;20509;-76
2022/03/23 10:24:19;;;;;;;27.90;11.20;;;;;;;;;;5034112;28;20519;-76
2022/03/23 10:26:48;;;;;;;37.10;12.73;;;14.70;99.90;;;;;;5034791;28;20504;-76
2022/03/23 10:29:24;;;;;;;39.13;11.90;;;14.70;99.90;;;;;;5034261;28;20426;-79
2022/03/23 10:32:06;;;;;;;32.30;12.20;;;14.80;99.90;;;;;;5029784;28;20930;-77
2022/03/23 10:34:38;;;;;;;37.33;12.33;;;;;;;;;;5030855;28;20435;-76
2022/03/23 10:37:05;;;;;;;29.43;11.40;;;;;;;;;;5035342;28;20434;-73
2022/03/23 10:39:31;;;;;;;32.53;12.53;;;;;;;;;;5036010;28;20386;-73
2022/03/23 10:41:58;;;;;;;33.13;12.17;;;;;;;;;;5035621;28;20430;-74
2022/03/23 10:44:24;;;;;;;39.20;13.00;;;;;;;;;;5035956;28;20450;-74
2022/03/23 10:46:50;;;;;;;34.03;11.93;;;;;;;;;;5034562;28;20434;-74
2022/03/23 10:49:17;;;;;;;27.57;12.30;;;;;;;;;;5034183;28;20423;-74
2022/03/23 10:51:43;;;;;;;27.43;10.60;;;;;;;;;;5034767;28;20782;-74
2022/03/23 10:54:17;;;;;;;26.87;10.53;;;15.80;99.90;;;;;;5034232;28;20513;-74
2022/03/23 10:56:43;;;;;;;23.10;10.40;;;;;;;;;;5040197;28;20499;-74
2022/03/23 10:59:23;;;;;;;30.60;10.10;;;15.90;99.90;;;;;;5036728;28;20941;-74
2022/03/23 11:02:04;;;;;;;28.70;10.83;;;;;;;;;;5034964;28;20539;-74
2022/03/23 11:04:53;;;;;;;21.33;10.10;;;;;;;;;;5034982;28;20429;-74
2022/03/23 11:07:27;;;;;;;19.57;9.63;;;16.30;99.90;;;;;;5034739;28;20438;-73
2022/03/23 11:18:09;;;;;;;51.23;10.87;;;;;;;;;;5032858;28;20951;-74
2022/03/23 11:20:44;;;;;;;29.03;9.70;;;;;;;;;;5033566;28;20460;-76
2022/03/23 11:23:24;;;;;;;20.00;9.03;;;;;;;;;;5034400;28;20463;-74
2022/03/23 11:25:54;;;;;;;19.00;8.80;;;;;;;;;;5032335;28;20489;-73
2022/03/23 11:28:20;;;;;;;40.13;9.53;;;;;;;;;;5034018;28;20767;-73
2022/03/23 11:30:48;;;;;;;33.10;9.90;;;17.40;99.90;;;;;;5033432;28;20464;-73
2022/03/23 11:33:16;;;;;;;22.50;7.73;;;;;;;;;;5034748;28;20440;-74
2022/03/23 11:35:48;;;;;;;19.20;8.40;;;;;;;;;;5034396;28;20431;-74
2022/03/23 11:38:15;;;;;;;18.30;8.63;;;;;;;;;;5034076;28;20922;-77
2022/03/23 11:40:42;;;;;;;18.23;8.50;;;;;;;;;;5033056;28;20433;-78
2022/03/23 11:43:10;;;;;;;18.93;9.10;;;18.00;99.90;;;;;;5032832;28;20523;-77
2022/03/23 11:45:40;;;;;;;22.60;8.70;;;18.00;99.90;;;;;;5033824;28;20463;-77
2022/03/23 11:48:12;;;;;;;18.03;8.37;;;;;;;;;;5033559;28;20462;-77
2022/03/23 11:50:56;;;;;;;15.30;7.77;;;;;;;;;;5033950;28;20517;-77
2022/03/23 11:53:43;;;;;;;22.63;9.00;;;18.20;99.90;;;;;;5034096;28;20500;-77
2022/03/23 11:56:09;;;;;;;19.00;8.70;;;18.20;99.90;;;;;;5033860;28;20424;-78
2022/03/23 11:58:37;;;;;;;21.20;8.60;;;18.20;99.90;;;;;;5033776;28;20949;-77
2022/03/23 12:01:14;;;;;;;20.23;8.43;;;;;;;;;;5033529;28;20892;-77
2022/03/23 12:03:47;;;;;;;22.77;8.90;;;;;;;;;;5033983;28;20464;-77
2022/03/23 12:06:14;;;;;;;20.20;8.53;;;18.60;99.90;;;;;;5033965;28;20807;-77
2022/03/23 12:08:47;;;;;;;22.63;8.70;;;;;;;;;;5033735;28;20466;-78
2022/03/23 12:11:32;;;;;;;17.07;7.83;;;;;;;;;;5033611;28;20454;-77
2022/03/23 12:13:58;;;;;;;18.67;7.33;;;;;;;;;;5033701;28;20435;-76
2022/03/23 12:16:51;;;;;;;14.83;7.03;;;18.70;99.90;;;;;;5033243;28;20436;-76
2022/03/23 12:19:18;;;;;;;16.80;7.77;;;18.70;99.90;;;;;;4940466;29;20569;-76
2022/03/23 12:21:56;;;;;;;513.87;43.53;;;;;;;;;;4937683;28;21465;-74
2022/03/23 12:24:28;;;;;;;21.20;7.47;;;;;;;;;;4933409;28;21132;-74
2022/03/23 12:26:57;;;;;;;17.13;7.87;;;18.90;99.90;;;;;;4929184;29;20989;-73
2022/03/23 12:29:33;;;;;;;32.33;9.13;;;;;;;;;;4934078;29;20435;-73
2022/03/23 12:32:10;;;;;;;23.10;8.90;;;;;;;;;;4931193;29;20447;-73
2022/03/23 12:34:38;;;;;;;19.80;8.40;;;;;;;;;;4933605;29;20434;-74
2022/03/23 12:37:12;;;;;;;30.03;9.53;;;19.10;99.90;;;;;;4933445;29;20431;-77
2022/03/23 12:39:51;;;;;;;18.77;8.67;;;;;;;;;;4933562;29;20439;-77
2022/03/23 12:42:18;;;;;;;20.47;8.53;;;19.10;99.90;;;;;;4929142;29;20966;-77
2022/03/23 12:44:48;;;;;;;19.40;8.00;;;;;;;;;;4931565;29;20432;-78
2022/03/23 12:47:17;;;;;;;29.70;9.03;;;;;;;;;;4934198;29;20432;-80
2022/03/23 12:58:45;;;;;;;21.73;8.40;;;;;;;;;;5009368;28;20924;-79
2022/03/23 13:01:18;;;;;;;324.23;31.33;;;;;;;;;;5003245;28;20416;-72
2022/03/23 13:03:44;;;;;;;22.53;7.73;;;;;;;;;;5015170;28;20463;-73
2022/03/23 13:06:15;;;;;;;21.73;7.47;;;19.80;99.90;;;;;;5012554;28;20435;-72
2022/03/23 13:08:48;;;;;;;16.53;6.60;;;19.80;99.90;;;;;;5013497;28;20429;-72
2022/03/23 13:11:20;;;;;;;23.63;7.33;;;;;;;;;;5013019;28;20434;-73
2022/03/23 13:13:50;;;;;;;33.33;8.83;;;20.00;99.90;;;;;;5013953;28;20460;-74
2022/03/23 13:16:39;;;;;;;19.43;8.10;;;20.00;99.90;;;;;;5013480;28;20433;-73
2022/03/23 13:19:08;;;;;;;24.03;9.30;;;20.00;99.90;;;;;;5005270;28;20445;-73
2022/03/23 13:21:34;;;;;;;34.63;9.60;;;19.90;99.90;;;;;;5011945;28;20411;-73
2022/03/23 13:24:03;;;;;;;35.43;9.93;;;;;;;;;;5020477;28;20494;-73
2022/03/23 13:26:30;;;;;;;29.47;8.17;;;;;;;;;;5032737;28;20564;-73
2022/03/23 13:29:05;;;;;;;24.53;8.47;;;19.80;99.90;;;;;;5032844;28;20421;-73
2022/03/23 13:31:34;;;;;;;30.40;9.97;;;;;;;;;;5030056;28;20465;-73
2022/03/23 13:34:03;;;;;;;41.57;10.80;;;19.80;99.90;;;;;;5027590;28;20455;-73
2022/03/23 13:36:32;;;;;;;38.87;9.67;;;;;;;;;;5032014;28;20431;-73
2022/03/23 13:38:58;;;;;;;22.30;9.00;;;;;;;;;;5032858;28;20481;-78
2022/03/23 13:44:14;;;;;;;22.83;9.03;;;;;;;;;;5033277;28;20449;-77
2022/03/23 13:46:47;;;;;;;26.00;11.47;;;;;;;;;;5033092;28;20901;-78
2022/03/23 13:49:15;;;;;;;26.10;11.23;;;20.20;99.90;;;;;;5032264;28;20442;-78
2022/03/23 13:51:44;;;;;;;36.93;12.17;;;20.30;99.90;;;;;;5031860;28;20511;-77
2022/03/23 13:54:13;;;;;;;23.77;10.00;;;20.40;99.90;;;;;;5032753;28;20895;-74
2022/03/23 13:56:41;;;;;;;23.30;9.40;;;20.50;99.90;;;;;;5032003;28;20932;-72
2022/03/23 13:59:08;;;;;;;31.50;11.63;;;20.60;99.90;;;;;;5031545;28;20440;-72
2022/03/23 14:01:44;;;;;;;41.63;13.23;;;;;;;;;;5031790;28;20425;-73
2022/03/23 14:04:11;;;;;;;23.70;9.90;;;20.40;99.90;;;;;;5032091;28;20522;-73
2022/03/23 14:06:41;;;;;;;25.73;10.70;;;20.20;99.90;;;;;;5032087;28;20468;-73
2022/03/23 14:09:08;;;;;;;27.23;11.20;;;;;;;;;;5032205;28;20487;-77
2022/03/23 14:14:27;;;;;;;30.00;11.17;;;20.30;99.90;;;;;;4949412;28;20431;-77
2022/03/23 14:17:00;;;;;;;26.93;11.10;;;20.30;99.90;;;;;;4950999;29;20560;-77
2022/03/23 14:19:27;;;;;;;28.60;11.67;;;;;;;;;;4951199;29;20436;-77
2022/03/23 14:21:54;;;;;;;23.80;11.17;;;;;;;;;;4951511;29;20415;-77
2022/03/23 14:24:21;;;;;;;29.43;11.23;;;20.20;99.90;;;;;;4951542;28;20556;-77
2022/03/23 14:26:47;;;;;;;43.60;13.13;;;;;;;;;;4968295;28;20430;-77
2022/03/23 14:29:22;;;;;;;25.00;11.53;;;20.20;99.90;;;;;;4955331;29;20424;-77
2022/03/23 14:31:51;;;;;;;23.47;10.80;;;20.40;99.90;;;;;;4950586;29;20443;-77
2022/03/23 14:34:25;;;;;;;32.33;11.80;;;20.50;99.90;;;;;;4954133;29;20459;-77
2022/03/23 14:37:03;;;;;;;25.87;10.67;;;;;;;;;;4954789;29;20519;-77
2022/03/23 14:39:45;;;;;;;28.83;11.30;;;20.40;99.90;;;;;;4953889;29;20463;-77
2022/03/23 14:42:13;;;;;;;24.10;11.13;;;20.40;99.90;;;;;;4942907;29;20941;-77
2022/03/23 14:44:44;;;;;;;25.43;11.40;;;20.50;99.90;;;;;;4954243;29;20567;-77
2022/03/23 14:47:10;;;;;;;35.50;11.57;;;;;;;;;;4954469;29;20455;-76
2022/03/23 14:49:44;;;;;;;26.73;10.17;;;20.40;99.90;;;;;;4954908;29;20776;-77